Mississippi Star — 9HA2441 — position and weather

sailwx.info

Track history (hours):
 
Tides and Currents Weather Stations Pressure Air Temp Water Temp Dewpoint Dewpoint Depression Visibility Wind Speed Wind Dir Waves Ship Positions

Mississippi Star

Last reported at 2015-Jan-26 07:17 UTC. Time now 2015-Jan-26 08:29 UTC.
Position N 57°40' W 001°02'.

Length 128 m; draft 6 m.

Type: Ship. MMSI: 248621000.

Date/timePositionNaut miles runAvg speedWind from/ knotsBaromVisibWave heightAir tempDewpointWater temp
2015-Jan-26 07:17N 57°40' W 001°02'1011.7
2015-Jan-26 06:25N 57°30' W 000°56'19712.1
2015-Jan-25 14:07N 54°22' E 000°52'8911.7
2015-Jan-25 06:32N 53°09' E 002°17'3112.7
2015-Jan-25 04:06N 52°38' E 002°19'713.2
2015-Jan-25 03:33N 52°32' E 002°13'1412.3
2015-Jan-25 02:25N 52°19' E 002°05'1011.1
2015-Jan-25 01:29N 52°09' E 001°59'910.1
2015-Jan-25 00:33N 52°01' E 001°52'9 9.3
2015-Jan-24 23:33N 51°52' E 001°48'9 9.5
2015-Jan-24 22:33N 51°42' E 001°49'9 9.3
2015-Jan-24 21:33N 51°34' E 001°43'1111.4
2015-Jan-24 20:33N 51°27' E 001°28'1313.0
2015-Jan-24 19:33N 51°29' E 001°07'1414.4
2015-Jan-24 18:34N 51°30' E 000°44'1413.8
2015-Jan-24 17:34N 51°27' E 000°23'3 3.0
2015-Jan-24 16:34N 51°28' E 000°18'0 0.0
2015-Jan-24 15:34N 51°28' E 000°18'0 0.0
2015-Jan-24 14:33N 51°28' E 000°18'0 0.0
2015-Jan-24 13:34N 51°28' E 000°18'0 0.0
2015-Jan-24 12:34N 51°28' E 000°18'0 0.0
2015-Jan-24 11:34N 51°28' E 000°18'0 0.0
2015-Jan-24 10:34N 51°28' E 000°18'0 0.0
2015-Jan-24 09:34N 51°28' E 000°18'0 0.0
2015-Jan-24 08:34N 51°28' E 000°18'0 0.0
2015-Jan-24 07:34N 51°28' E 000°18'0 0.0
2015-Jan-24 06:33N 51°28' E 000°18'0 0.0
2015-Jan-24 05:34N 51°28' E 000°18'0 0.0
2015-Jan-24 04:34N 51°28' E 000°18'0 0.0
2015-Jan-24 03:34N 51°28' E 000°18'0 0.0
2015-Jan-24 02:34N 51°28' E 000°18'0 0.0
2015-Jan-24 01:33N 51°28' E 000°18'0 0.0
2015-Jan-24 00:34N 51°28' E 000°18'0 0.0
2015-Jan-23 23:33N 51°28' E 000°18'0 0.0
2015-Jan-23 22:33N 51°28' E 000°18'0 0.0
2015-Jan-23 21:33N 51°28' E 000°18'0 0.0
2015-Jan-23 20:33N 51°28' E 000°18'0 0.0
2015-Jan-23 19:34N 51°28' E 000°18'0 0.0
2015-Jan-23 18:33N 51°28' E 000°18'2 2.1
2015-Jan-23 17:34N 51°27' E 000°21'6 5.8
2015-Jan-23 16:33N 51°30' E 000°29'8 8.2
2015-Jan-23 15:33N 51°30' E 000°42'9 9.4
2015-Jan-23 14:33N 51°29' E 000°57'1313.0
2015-Jan-23 13:33N 51°29' E 001°18'8 7.9
2015-Jan-23 12:33N 51°28' E 001°31'4 3.5
2015-Jan-23 11:32N 51°32' E 001°32'0 0.0
2015-Jan-23 10:32N 51°32' E 001°32'0 0.0
2015-Jan-23 09:32N 51°32' E 001°32'0 0.0
2015-Jan-23 08:32N 51°32' E 001°32'0 0.1
2015-Jan-23 07:32N 51°32' E 001°32'0 0.0
2015-Jan-23 06:32N 51°32' E 001°32'0 0.0
2015-Jan-23 05:32N 51°32' E 001°32'0 0.0
2015-Jan-23 04:32N 51°32' E 001°32'0 0.0
2015-Jan-23 03:32N 51°32' E 001°32'0 0.1
2015-Jan-23 02:32N 51°32' E 001°32'0 0.1
2015-Jan-23 01:32N 51°32' E 001°31'0 0.0
2015-Jan-23 00:32N 51°32' E 001°31'0 0.1
2015-Jan-22 23:32N 51°32' E 001°31'0 0.0
2015-Jan-22 22:32N 51°32' E 001°31'0 0.0
2015-Jan-22 21:29N 51°32' E 001°32'0 0.0
2015-Jan-22 20:32N 51°32' E 001°32'0 0.0
2015-Jan-22 19:32N 51°32' E 001°32'0 0.0
2015-Jan-22 18:32N 51°32' E 001°32'0 0.1
2015-Jan-22 17:32N 51°32' E 001°32'0 0.0
2015-Jan-22 16:32N 51°32' E 001°32'0 0.0
2015-Jan-22 15:32N 51°32' E 001°32'0 0.1
2015-Jan-22 14:32N 51°32' E 001°32'0 0.1
2015-Jan-22 13:32N 51°32' E 001°31'0 0.0
2015-Jan-22 12:32N 51°32' E 001°31'0 0.0
2015-Jan-22 11:29N 51°32' E 001°31'0 0.0
2015-Jan-22 10:29N 51°32' E 001°31'0 0.0
2015-Jan-22 09:32N 51°32' E 001°31'0 0.0
2015-Jan-22 08:32N 51°32' E 001°32'0 0.0
2015-Jan-22 07:32N 51°32' E 001°32'0 0.0
2015-Jan-22 06:32N 51°32' E 001°32'0 0.0
2015-Jan-22 05:32N 51°32' E 001°32'0 0.0
2015-Jan-22 04:32N 51°32' E 001°32'0 0.0
2015-Jan-22 03:32N 51°32' E 001°32'6 6.0
2015-Jan-22 02:33N 51°32' E 001°41'1010.0
2015-Jan-22 01:34N 51°35' E 001°56'1110.6
2015-Jan-22 00:34N 51°39' E 002°12'3712.1
2015-Jan-21 21:32N 52°02' E 002°58'1313.1
2015-Jan-21 20:32N 52°04' E 003°19'1313.0
2015-Jan-21 19:33N 52°06' E 003°39'1 0.9
2015-Jan-21 18:33N 52°07' E 003°39'7 6.6
2015-Jan-21 17:33N 52°05' E 003°49'8 8.1
2015-Jan-21 16:33N 52°01' E 004°00'8 8.2
2015-Jan-21 15:33N 51°56' E 004°12'5 4.6
2015-Jan-21 14:33N 51°54' E 004°18'3 2.2
2015-Jan-21 13:22N 51°53' E 004°22'0 0.0
2015-Jan-20 17:29N 51°53' E 004°22'0 0.0
2015-Jan-20 16:32N 51°53' E 004°22'0 0.0
2015-Jan-20 15:33N 51°53' E 004°22'3 3.3
2015-Jan-20 14:33N 51°54' E 004°17'1211.9
2015-Jan-20 13:33N 51°60' E 004°00'9 9.3
2015-Jan-20 12:33N 52°04' E 003°47'8 7.3
2015-Jan-20 11:25N 52°12' E 003°41'0 0.1
2015-Jan-20 10:16N 52°12' E 003°41'0 0.0
2015-Jan-20 09:28N 52°12' E 003°41'0 0.0
2015-Jan-20 06:28N 52°12' E 003°41'0 0.0
2015-Jan-20 05:25N 52°12' E 003°41'0 0.1
2015-Jan-20 04:13N 52°12' E 003°41'0 0.0
2015-Jan-19 22:31N 52°12' E 003°41'0 0.0
2015-Jan-19 21:09N 52°12' E 003°41'0 0.0
2015-Jan-19 20:33N 52°12' E 003°41'0 0.0
2015-Jan-19 19:31N 52°12' E 003°41'0 0.0
2015-Jan-19 18:24N 52°12' E 003°41'0 0.0
2015-Jan-19 17:28N 52°12' E 003°41'0 0.0
2015-Jan-19 13:25N 52°12' E 003°41'0 0.0
2015-Jan-19 11:06N 52°12' E 003°41'0 0.1
2015-Jan-19 10:33N 52°12' E 003°41'0 0.0
2015-Jan-19 09:33N 52°12' E 003°41'0 0.0
2015-Jan-19 08:33N 52°12' E 003°41'0 0.0
2015-Jan-19 06:27N 52°12' E 003°41'0 0.0
2015-Jan-19 05:33N 52°12' E 003°41'0 0.0
2015-Jan-19 01:12N 52°12' E 003°41'5 7.9
2015-Jan-19 00:33N 52°17' E 003°45'19 9.5
2015-Jan-18 22:33N 52°31' E 004°05'1212.5
2015-Jan-18 21:33N 52°29' E 004°25'7 7.0
2015-Jan-18 20:34N 52°28' E 004°36'1 1.2
2015-Jan-18 19:33N 52°28' E 004°39'6 5.6
2015-Jan-18 18:33N 52°25' E 004°46'1 0.0
2015-Jan-17 17:26N 52°24' E 004°47'1 1.6
2015-Jan-17 16:33N 52°25' E 004°46'6 6.4
2015-Jan-17 15:34N 52°28' E 004°36'2 1.6
2015-Jan-17 14:34N 52°28' E 004°34'7 6.6
2015-Jan-17 13:33N 52°29' E 004°23'1110.9
2015-Jan-17 12:33N 52°28' E 004°05'3 3.0
2015-Jan-17 11:32N 52°26' E 004°01'0 0.0
2015-Jan-17 10:29N 52°26' E 004°01'0 0.0
2015-Jan-17 09:11N 52°26' E 004°01'0 0.1
2015-Jan-17 08:32N 52°26' E 004°01'0 0.1
2015-Jan-17 07:32N 52°26' E 004°01'0 0.0
2015-Jan-17 06:29N 52°26' E 004°01'0 0.0
2015-Jan-17 05:32N 52°26' E 004°01'0 0.0
2015-Jan-17 04:29N 52°26' E 004°01'0 0.0
2015-Jan-17 03:05N 52°26' E 004°01'0 0.0
2015-Jan-17 02:32N 52°26' E 004°01'0 0.1
2015-Jan-17 01:32N 52°26' E 004°01'0 0.0
2015-Jan-17 00:32N 52°26' E 004°01'0 0.0
2015-Jan-16 23:32N 52°26' E 004°01'0 0.0
2015-Jan-16 22:32N 52°26' E 004°01'0 0.0
2015-Jan-16 21:20N 52°26' E 004°01'0 0.0
2015-Jan-16 20:32N 52°26' E 004°01'0 0.1
2015-Jan-16 19:32N 52°26' E 004°01'0 0.0
2015-Jan-16 18:32N 52°26' E 004°01'0 0.0
2015-Jan-16 17:32N 52°26' E 004°01'0 0.0
2015-Jan-16 16:26N 52°26' E 004°01'0 0.1
2015-Jan-16 15:32N 52°26' E 004°01'0 0.1
2015-Jan-16 14:26N 52°26' E 004°01'0 0.0
2015-Jan-16 13:17N 52°26' E 004°01'0 0.0
2015-Jan-16 12:29N 52°26' E 004°01'0 0.0
2015-Jan-16 11:26N 52°26' E 004°01'0 0.0
2015-Jan-16 09:14N 52°26' E 004°01'0 0.0
2015-Jan-16 08:32N 52°26' E 004°01'0 0.0
2015-Jan-16 07:29N 52°26' E 004°01'  
Track history (hours):
 
Tides and Currents Weather Stations Pressure Air Temp Water Temp Dewpoint Dewpoint Depression Visibility Wind Speed Wind Dir Waves Ship Positions

Mississippi Star

Last reported at 2015-Jan-26 07:17 UTC. Time now 2015-Jan-26 08:29 UTC.
Position N 57°40' W 001°02'.

Length 128 m; draft 6 m.

Type: Ship. MMSI: 248621000.

Date/timePositionNaut miles runAvg speedWind from/ knotsBaromVisibWave heightAir tempDewpointWater temp
2015-Jan-26 07:17N 57°40' W 001°02'1011.7
2015-Jan-26 06:25N 57°30' W 000°56'19712.1
2015-Jan-25 14:07N 54°22' E 000°52'8911.7
2015-Jan-25 06:32N 53°09' E 002°17'3112.7
2015-Jan-25 04:06N 52°38' E 002°19'713.2
2015-Jan-25 03:33N 52°32' E 002°13'1412.3
2015-Jan-25 02:25N 52°19' E 002°05'1011.1
2015-Jan-25 01:29N 52°09' E 001°59'910.1
2015-Jan-25 00:33N 52°01' E 001°52'9 9.3
2015-Jan-24 23:33N 51°52' E 001°48'9 9.5
2015-Jan-24 22:33N 51°42' E 001°49'9 9.3
2015-Jan-24 21:33N 51°34' E 001°43'1111.4
2015-Jan-24 20:33N 51°27' E 001°28'1313.0
2015-Jan-24 19:33N 51°29' E 001°07'1414.4
2015-Jan-24 18:34N 51°30' E 000°44'1413.8
2015-Jan-24 17:34N 51°27' E 000°23'3 3.0
2015-Jan-24 16:34N 51°28' E 000°18'0 0.0
2015-Jan-24 15:34N 51°28' E 000°18'0 0.0
2015-Jan-24 14:33N 51°28' E 000°18'0 0.0
2015-Jan-24 13:34N 51°28' E 000°18'0 0.0
2015-Jan-24 12:34N 51°28' E 000°18'0 0.0
2015-Jan-24 11:34N 51°28' E 000°18'0 0.0
2015-Jan-24 10:34N 51°28' E 000°18'0 0.0
2015-Jan-24 09:34N 51°28' E 000°18'0 0.0
2015-Jan-24 08:34N 51°28' E 000°18'0 0.0
2015-Jan-24 07:34N 51°28' E 000°18'0 0.0
2015-Jan-24 06:33N 51°28' E 000°18'0 0.0
2015-Jan-24 05:34N 51°28' E 000°18'0 0.0
2015-Jan-24 04:34N 51°28' E 000°18'0 0.0
2015-Jan-24 03:34N 51°28' E 000°18'0 0.0
2015-Jan-24 02:34N 51°28' E 000°18'0 0.0
2015-Jan-24 01:33N 51°28' E 000°18'0 0.0
2015-Jan-24 00:34N 51°28' E 000°18'0 0.0
2015-Jan-23 23:33N 51°28' E 000°18'0 0.0
2015-Jan-23 22:33N 51°28' E 000°18'0 0.0
2015-Jan-23 21:33N 51°28' E 000°18'0 0.0
2015-Jan-23 20:33N 51°28' E 000°18'0 0.0
2015-Jan-23 19:34N 51°28' E 000°18'0 0.0
2015-Jan-23 18:33N 51°28' E 000°18'2 2.1
2015-Jan-23 17:34N 51°27' E 000°21'6 5.8
2015-Jan-23 16:33N 51°30' E 000°29'8 8.2
2015-Jan-23 15:33N 51°30' E 000°42'9 9.4
2015-Jan-23 14:33N 51°29' E 000°57'1313.0
2015-Jan-23 13:33N 51°29' E 001°18'8 7.9
2015-Jan-23 12:33N 51°28' E 001°31'4 3.5
2015-Jan-23 11:32N 51°32' E 001°32'0 0.0
2015-Jan-23 10:32N 51°32' E 001°32'0 0.0
2015-Jan-23 09:32N 51°32' E 001°32'0 0.0
2015-Jan-23 08:32N 51°32' E 001°32'0 0.1
2015-Jan-23 07:32N 51°32' E 001°32'0 0.0
2015-Jan-23 06:32N 51°32' E 001°32'0 0.0
2015-Jan-23 05:32N 51°32' E 001°32'0 0.0
2015-Jan-23 04:32N 51°32' E 001°32'0 0.0
2015-Jan-23 03:32N 51°32' E 001°32'0 0.1
2015-Jan-23 02:32N 51°32' E 001°32'0 0.1
2015-Jan-23 01:32N 51°32' E 001°31'0 0.0
2015-Jan-23 00:32N 51°32' E 001°31'0 0.1
2015-Jan-22 23:32N 51°32' E 001°31'0 0.0
2015-Jan-22 22:32N 51°32' E 001°31'0 0.0
2015-Jan-22 21:29N 51°32' E 001°32'0 0.0
2015-Jan-22 20:32N 51°32' E 001°32'0 0.0
2015-Jan-22 19:32N 51°32' E 001°32'0 0.0
2015-Jan-22 18:32N 51°32' E 001°32'0 0.1
2015-Jan-22 17:32N 51°32' E 001°32'0 0.0
2015-Jan-22 16:32N 51°32' E 001°32'0 0.0
2015-Jan-22 15:32N 51°32' E 001°32'0 0.1
2015-Jan-22 14:32N 51°32' E 001°32'0 0.1
2015-Jan-22 13:32N 51°32' E 001°31'0 0.0
2015-Jan-22 12:32N 51°32' E 001°31'0 0.0
2015-Jan-22 11:29N 51°32' E 001°31'0 0.0
2015-Jan-22 10:29N 51°32' E 001°31'0 0.0
2015-Jan-22 09:32N 51°32' E 001°31'0 0.0
2015-Jan-22 08:32N 51°32' E 001°32'0 0.0
2015-Jan-22 07:32N 51°32' E 001°32'0 0.0
2015-Jan-22 06:32N 51°32' E 001°32'0 0.0
2015-Jan-22 05:32N 51°32' E 001°32'0 0.0
2015-Jan-22 04:32N 51°32' E 001°32'0 0.0
2015-Jan-22 03:32N 51°32' E 001°32'6 6.0
2015-Jan-22 02:33N 51°32' E 001°41'1010.0
2015-Jan-22 01:34N 51°35' E 001°56'1110.6
2015-Jan-22 00:34N 51°39' E 002°12'3712.1
2015-Jan-21 21:32N 52°02' E 002°58'1313.1
2015-Jan-21 20:32N 52°04' E 003°19'1313.0
2015-Jan-21 19:33N 52°06' E 003°39'1 0.9
2015-Jan-21 18:33N 52°07' E 003°39'7 6.6
2015-Jan-21 17:33N 52°05' E 003°49'8 8.1
2015-Jan-21 16:33N 52°01' E 004°00'8 8.2
2015-Jan-21 15:33N 51°56' E 004°12'5 4.6
2015-Jan-21 14:33N 51°54' E 004°18'3 2.2
2015-Jan-21 13:22N 51°53' E 004°22'0 0.0
2015-Jan-20 17:29N 51°53' E 004°22'0 0.0
2015-Jan-20 16:32N 51°53' E 004°22'0 0.0
2015-Jan-20 15:33N 51°53' E 004°22'3 3.3
2015-Jan-20 14:33N 51°54' E 004°17'1211.9
2015-Jan-20 13:33N 51°60' E 004°00'9 9.3
2015-Jan-20 12:33N 52°04' E 003°47'8 7.3
2015-Jan-20 11:25N 52°12' E 003°41'0 0.1
2015-Jan-20 10:16N 52°12' E 003°41'0 0.0
2015-Jan-20 09:28N 52°12' E 003°41'0 0.0
2015-Jan-20 06:28N 52°12' E 003°41'0 0.0
2015-Jan-20 05:25N 52°12' E 003°41'0 0.1
2015-Jan-20 04:13N 52°12' E 003°41'0 0.0
2015-Jan-19 22:31N 52°12' E 003°41'0 0.0
2015-Jan-19 21:09N 52°12' E 003°41'0 0.0
2015-Jan-19 20:33N 52°12' E 003°41'0 0.0
2015-Jan-19 19:31N 52°12' E 003°41'0 0.0
2015-Jan-19 18:24N 52°12' E 003°41'0 0.0
2015-Jan-19 17:28N 52°12' E 003°41'0 0.0
2015-Jan-19 13:25N 52°12' E 003°41'0 0.0
2015-Jan-19 11:06N 52°12' E 003°41'0 0.1
2015-Jan-19 10:33N 52°12' E 003°41'0 0.0
2015-Jan-19 09:33N 52°12' E 003°41'0 0.0
2015-Jan-19 08:33N 52°12' E 003°41'0 0.0
2015-Jan-19 06:27N 52°12' E 003°41'0 0.0
2015-Jan-19 05:33N 52°12' E 003°41'0 0.0
2015-Jan-19 01:12N 52°12' E 003°41'5 7.9
2015-Jan-19 00:33N 52°17' E 003°45'19 9.5
2015-Jan-18 22:33N 52°31' E 004°05'1212.5
2015-Jan-18 21:33N 52°29' E 004°25'7 7.0
2015-Jan-18 20:34N 52°28' E 004°36'1 1.2
2015-Jan-18 19:33N 52°28' E 004°39'6 5.6
2015-Jan-18 18:33N 52°25' E 004°46'1 0.0
2015-Jan-17 17:26N 52°24' E 004°47'1 1.6
2015-Jan-17 16:33N 52°25' E 004°46'6 6.4
2015-Jan-17 15:34N 52°28' E 004°36'2 1.6
2015-Jan-17 14:34N 52°28' E 004°34'7 6.6
2015-Jan-17 13:33N 52°29' E 004°23'1110.9
2015-Jan-17 12:33N 52°28' E 004°05'3 3.0
2015-Jan-17 11:32N 52°26' E 004°01'0 0.0
2015-Jan-17 10:29N 52°26' E 004°01'0 0.0
2015-Jan-17 09:11N 52°26' E 004°01'0 0.1
2015-Jan-17 08:32N 52°26' E 004°01'0 0.1
2015-Jan-17 07:32N 52°26' E 004°01'0 0.0
2015-Jan-17 06:29N 52°26' E 004°01'0 0.0
2015-Jan-17 05:32N 52°26' E 004°01'0 0.0
2015-Jan-17 04:29N 52°26' E 004°01'0 0.0
2015-Jan-17 03:05N 52°26' E 004°01'0 0.0
2015-Jan-17 02:32N 52°26' E 004°01'0 0.1
2015-Jan-17 01:32N 52°26' E 004°01'0 0.0
2015-Jan-17 00:32N 52°26' E 004°01'0 0.0
2015-Jan-16 23:32N 52°26' E 004°01'0 0.0
2015-Jan-16 22:32N 52°26' E 004°01'0 0.0
2015-Jan-16 21:20N 52°26' E 004°01'0 0.0
2015-Jan-16 20:32N 52°26' E 004°01'0 0.1
2015-Jan-16 19:32N 52°26' E 004°01'0 0.0
2015-Jan-16 18:32N 52°26' E 004°01'0 0.0
2015-Jan-16 17:32N 52°26' E 004°01'0 0.0
2015-Jan-16 16:26N 52°26' E 004°01'0 0.1
2015-Jan-16 15:32N 52°26' E 004°01'0 0.1
2015-Jan-16 14:26N 52°26' E 004°01'0 0.0
2015-Jan-16 13:17N 52°26' E 004°01'0 0.0
2015-Jan-16 12:29N 52°26' E 004°01'0 0.0
2015-Jan-16 11:26N 52°26' E 004°01'0 0.0
2015-Jan-16 09:14N 52°26' E 004°01'0 0.0
2015-Jan-16 08:32N 52°26' E 004°01'0 0.0
2015-Jan-16 07:29N 52°26' E 004°01'  

Dump ship's entire track history